| time (UTC) | temp C | wind direction | speed KPH | gust KPH | rain 1hr cm | rain 24hr cm | rain mn cm | humidity % | barometer mb |
| 20260509202929 | 22 | 346 | 9.7 | 27.4 | 0.00 | 0.00 | 0.00 | 17 | 1020.0 |
| 20260509201930 | 22 | 298 | 4.8 | 27.4 | 0.00 | 0.00 | 0.00 | 16 | 1020.0 |
| 20260509200859 | 22 | 259 | 8.0 | 27.4 | 0.00 | 0.00 | 0.00 | 17 | 1020.0 |
| 20260509195859 | 23 | 263 | 8.0 | 27.4 | 0.00 | 0.00 | 0.00 | 17 | 1020.0 |
| 20260509194859 | 23 | 291 | 9.7 | 27.4 | 0.00 | 0.00 | 0.00 | 16 | 1020.3 |
| 20260509193859 | 23 | 241 | 8.0 | 27.4 | 0.00 | 0.00 | 0.00 | 17 | 1020.3 |
| 20260509192859 | 22 | 96 | 4.8 | 27.4 | 0.00 | 0.00 | 0.00 | 19 | 1020.3 |
| 20260509191859 | 21 | 294 | 9.7 | 27.4 | 0.00 | 0.00 | 0.00 | 20 | 1020.3 |
| 20260509190859 | 21 | 171 | 3.2 | 19.3 | 0.00 | 0.00 | 0.00 | 19 | 1020.3 |
| 20260509185829 | 22 | 196 | 1.6 | 19.3 | 0.00 | 0.00 | 0.00 | 18 | 1020.3 |
| 20260509184829 | 22 | 221 | 3.2 | 19.3 | 0.00 | 0.00 | 0.00 | 18 | 1020.7 |
| 20260509183829 | 21 | 194 | 3.2 | 19.3 | 0.00 | 0.00 | 0.00 | 21 | 1020.7 |
| 20260509182829 | 20 | 282 | 8.0 | 19.3 | 0.00 | 0.00 | 0.00 | 18 | 1021.0 |
| 20260509181829 | 21 | 259 | 8.0 | 19.3 | 0.00 | 0.00 | 0.00 | 18 | 1021.0 |
| 20260509180759 | 21 | 12 | 1.6 | 14.5 | 0.00 | 0.00 | 0.00 | 19 | 1021.0 |
| 20260509175729 | 21 | 285 | 8.0 | 14.5 | 0.00 | 0.00 | 0.00 | 20 | 1021.0 |
| 20260509174659 | 22 | 299 | 3.2 | 14.5 | 0.00 | 0.00 | 0.00 | 21 | 1021.0 |
| 20260509173659 | 22 | 311 | 3.2 | 14.5 | 0.00 | 0.00 | 0.00 | 21 | 1021.0 |
| 20260509172659 | 22 | 207 | 3.2 | 14.5 | 0.00 | 0.00 | 0.00 | 21 | 1021.3 |
| 20260509171659 | 22 | 202 | 1.6 | 14.5 | 0.00 | 0.00 | 0.00 | 23 | 1021.3 |
| 20260509170629 | 21 | 190 | 3.2 | 14.5 | 0.00 | 0.00 | 0.00 | 23 | 1021.3 |
| 20260509165629 | 21 | 155 | 1.6 | 14.5 | 0.00 | 0.00 | 0.00 | 25 | 1021.3 |
| 20260509164559 | 20 | 145 | 3.2 | 9.7 | 0.00 | 0.00 | 0.00 | 24 | 1021.7 |
| 20260509163529 | 20 | 177 | 3.2 | 9.7 | 0.00 | 0.00 | 0.00 | 27 | 1021.7 |
| 20260509162529 | 18 | 212 | 1.6 | 9.7 | 0.00 | 0.00 | 0.00 | 27 | 1021.7 |
| 20260509161529 | 18 | 223 | 3.2 | 9.7 | 0.00 | 0.00 | 0.00 | 28 | 1021.7 |
| 20260509160529 | 17 | 355 | 1.6 | 8.0 | 0.00 | 0.00 | 0.00 | 33 | 1022.0 |
| 20260509155529 | 16 | 129 | 1.6 | 8.0 | 0.00 | 0.00 | 0.00 | 36 | 1022.0 |
| 20260509154529 | 15 | 108 | 0.0 | 8.0 | 0.00 | 0.00 | 0.00 | 37 | 1022.0 |
| 20260509153529 | 15 | 0 | 0.0 | 8.0 | 0.00 | 0.00 | 0.00 | 39 | 1022.0 |
| 20260509152529 | 13 | 98 | 1.6 | 8.0 | 0.00 | 0.00 | 0.00 | 39 | 1022.0 |
| 20260509151529 | 12 | 107 | 0.0 | 8.0 | 0.00 | 0.00 | 0.00 | 48 | 1022.0 |
| 20260509150529 | 11 | 185 | 0.0 | 8.0 | 0.00 | 0.00 | 0.00 | 49 | 1021.7 |
| 20260509145529 | 10 | 132 | 1.6 | 8.0 | 0.00 | 0.00 | 0.00 | 54 | 1021.7 |
| 20260509144529 | 8 | 30 | 0.0 | 8.0 | 0.00 | 0.00 | 0.00 | 56 | 1021.7 |
| 20260509143529 | 8 | 131 | 0.0 | 8.0 | 0.00 | 0.00 | 0.00 | 57 | 1021.7 |
| 20260509142459 | 7 | 172 | 4.8 | 8.0 | 0.00 | 0.00 | 0.00 | 59 | 1021.7 |
| 20260509141459 | 6 | 61 | 0.0 | 3.2 | 0.00 | 0.00 | 0.00 | 62 | 1021.7 |
| 20260509140459 | 5 | 77 | 0.0 | 3.2 | 0.00 | 0.00 | 0.00 | 66 | 1021.7 |
| 20260509135459 | 4 | 50 | 0.0 | 3.2 | 0.00 | 0.00 | 0.00 | 68 | 1021.7 |
| 20260509134459 | 4 | 55 | 0.0 | 3.2 | 0.00 | 0.00 | 0.00 | 69 | 1021.7 |
| 20260509133459 | 3 | 93 | 0.0 | 3.2 | 0.00 | 0.00 | 0.00 | 74 | 1021.7 |
| 20260509132459 | 2 | 267 | 0.0 | 3.2 | 0.00 | 0.00 | 0.00 | 76 | 1021.3 |
| 20260509131459 | 1 | 329 | 0.0 | 3.2 | 0.00 | 0.00 | 0.00 | 78 | 1021.3 |
| 20260509130459 | 0 | 264 | 0.0 | 3.2 | 0.00 | 0.00 | 0.00 | 78 | 1021.0 |
| 20260509125459 | 0 | 263 | 0.0 | 3.2 | 0.00 | 0.00 | 0.00 | 77 | 1021.0 |
| 20260509124459 | 0 | 263 | 0.0 | 3.2 | 0.00 | 0.00 | 0.00 | 77 | 1021.0 |
| 20260509123459 | 0 | 263 | 0.0 | 3.2 | 0.00 | 0.00 | 0.00 | 77 | 1021.0 |
| 20260509122458 | 0 | 263 | 0.0 | 3.2 | 0.00 | 0.00 | 0.00 | 76 | 1020.7 |
| 20260509121458 | 0 | 262 | 0.0 | 3.2 | 0.00 | 0.00 | 0.00 | 76 | 1020.7 |
| 20260509120458 | 0 | 262 | 0.0 | 3.2 | 0.00 | 0.00 | 0.00 | 74 | 1020.3 |
| 20260509115458 | 0 | 262 | 0.0 | 3.2 | 0.00 | 0.00 | 0.00 | 74 | 1020.3 |
| 20260509114458 | 0 | 262 | 0.0 | 3.2 | 0.00 | 0.00 | 0.00 | 73 | 1020.3 |
| 20260509113458 | 0 | 262 | 0.0 | 3.2 | 0.00 | 0.00 | 0.00 | 72 | 1020.3 |
| 20260509112458 | 1 | 262 | 0.0 | 3.2 | 0.00 | 0.00 | 0.00 | 71 | 1020.0 |
| 20260509111458 | 1 | 262 | 0.0 | 3.2 | 0.00 | 0.00 | 0.00 | 70 | 1020.0 |
| 20260509110458 | 1 | 262 | 0.0 | 3.2 | 0.00 | 0.00 | 0.00 | 70 | 1020.3 |
| 20260509105458 | 1 | 262 | 0.0 | 3.2 | 0.00 | 0.00 | 0.00 | 69 | 1020.3 |
| 20260509104458 | 1 | 262 | 0.0 | 3.2 | 0.00 | 0.00 | 0.00 | 68 | 1020.3 |
| 20260509103458 | 1 | 262 | 0.0 | 3.2 | 0.00 | 0.00 | 0.00 | 69 | 1020.3 |
| 20260509102458 | 2 | 262 | 0.0 | 3.2 | 0.00 | 0.00 | 0.00 | 68 | 1020.0 |
| 20260509101458 | 2 | 262 | 0.0 | 3.2 | 0.00 | 0.00 | 0.00 | 67 | 1020.0 |
| 20260509100458 | 2 | 267 | 0.0 | 3.2 | 0.00 | 0.00 | 0.00 | 66 | 1020.3 |
| 20260509095458 | 2 | 261 | 0.0 | 3.2 | 0.00 | 0.00 | 0.00 | 66 | 1020.3 |
| 20260509094458 | 2 | 261 | 0.0 | 3.2 | 0.00 | 0.00 | 0.00 | 66 | 1020.3 |
| 20260509093457 | 3 | 261 | 0.0 | 3.2 | 0.00 | 0.00 | 0.00 | 65 | 1020.3 |
| 20260509092458 | 3 | 261 | 0.0 | 3.2 | 0.00 | 0.00 | 0.00 | 64 | 1020.0 |
| 20260509091457 | 3 | 261 | 0.0 | 3.2 | 0.00 | 0.00 | 0.00 | 63 | 1020.0 |
| 20260509090457 | 3 | 259 | 0.0 | 3.2 | 0.00 | 0.00 | 0.00 | 62 | 1020.0 |
| 20260509085457 | 4 | 259 | 0.0 | 3.2 | 0.00 | 0.00 | 0.00 | 62 | 1020.0 |
| 20260509084457 | 4 | 259 | 0.0 | 3.2 | 0.00 | 0.00 | 0.00 | 62 | 1020.0 |
| 20260509083457 | 4 | 270 | 1.6 | 3.2 | 0.00 | 0.00 | 0.00 | 62 | 1020.0 |
| 20260509082427 | 4 | 254 | 0.0 | 3.2 | 0.00 | 0.00 | 0.00 | 60 | 1020.3 |
| 20260509081427 | 5 | 254 | 0.0 | 3.2 | 0.00 | 0.00 | 0.00 | 59 | 1020.3 |
| 20260509080427 | 5 | 254 | 0.0 | 3.2 | 0.00 | 0.00 | 0.00 | 59 | 1020.3 |
| 20260509075427 | 5 | 254 | 1.6 | 3.2 | 0.00 | 0.00 | 0.00 | 59 | 1020.3 |
| 20260509074427 | 5 | 291 | 0.0 | 3.2 | 0.00 | 0.00 | 0.00 | 59 | 1020.3 |
| 20260509073427 | 5 | 291 | 0.0 | 3.2 | 0.00 | 0.00 | 0.00 | 59 | 1020.3 |
| 20260509072427 | 6 | 229 | 0.0 | 3.2 | 0.00 | 0.00 | 0.00 | 57 | 1020.7 |
| 20260509071427 | 6 | 222 | 0.0 | 3.2 | 0.00 | 0.00 | 0.00 | 56 | 1020.7 |
| 20260509070427 | 6 | 288 | 0.0 | 3.2 | 0.00 | 0.00 | 0.00 | 55 | 1020.3 |
| 20260509065427 | 7 | 260 | 1.6 | 3.2 | 0.00 | 0.00 | 0.00 | 54 | 1020.3 |
| 20260509064427 | 7 | 259 | 1.6 | 3.2 | 0.00 | 0.00 | 0.00 | 53 | 1020.7 |
| 20260509063427 | 8 | 271 | 0.0 | 3.2 | 0.00 | 0.00 | 0.00 | 51 | 1020.7 |
| 20260509062427 | 8 | 271 | 0.0 | 3.2 | 0.00 | 0.00 | 0.00 | 49 | 1020.7 |
| 20260509061427 | 8 | 277 | 0.0 | 3.2 | 0.00 | 0.00 | 0.00 | 49 | 1020.7 |
| 20260509060427 | 8 | 284 | 1.6 | 1.6 | 0.00 | 0.00 | 0.00 | 49 | 1020.7 |
| 20260509055427 | 9 | 267 | 0.0 | 16.1 | 0.00 | 0.00 | 0.00 | 50 | 1020.7 |
| 20260509054426 | 9 | 267 | 0.0 | 16.1 | 0.00 | 0.00 | 0.00 | 49 | 1020.7 |
| 20260509053426 | 10 | 278 | 0.0 | 16.1 | 0.00 | 0.00 | 0.00 | 49 | 1020.7 |
| 20260509052427 | 10 | 292 | 0.0 | 16.1 | 0.00 | 0.00 | 0.00 | 47 | 1020.7 |
| 20260509051426 | 10 | 296 | 0.0 | 16.1 | 0.00 | 0.00 | 0.00 | 47 | 1020.7 |
| 20260509050427 | 10 | 276 | 0.0 | 16.1 | 0.00 | 0.00 | 0.00 | 48 | 1020.7 |
| 20260509045426 | 10 | 276 | 1.6 | 16.1 | 0.00 | 0.00 | 0.00 | 48 | 1020.7 |
| 20260509044426 | 10 | 276 | 1.6 | 16.1 | 0.00 | 0.00 | 0.00 | 48 | 1020.3 |
| 20260509043426 | 10 | 225 | 0.0 | 16.1 | 0.00 | 0.00 | 0.00 | 46 | 1020.3 |
| 20260509042426 | 11 | 231 | 1.6 | 16.1 | 0.00 | 0.00 | 0.00 | 44 | 1020.3 |
| 20260509041426 | 11 | 263 | 0.0 | 16.1 | 0.00 | 0.00 | 0.00 | 43 | 1020.3 |
| 20260509040426 | 11 | 263 | 1.6 | 16.1 | 0.00 | 0.00 | 0.00 | 43 | 1020.0 |
| 20260509035426 | 11 | 263 | 0.0 | 16.1 | 0.00 | 0.00 | 0.00 | 44 | 1020.0 |
| 20260509034426 | 12 | 262 | 0.0 | 16.1 | 0.00 | 0.00 | 0.00 | 44 | 1019.6 |
| 20260509033426 | 12 | 262 | 0.0 | 16.1 | 0.00 | 0.00 | 0.00 | 43 | 1019.6 |
| 20260509032426 | 12 | 263 | 0.0 | 16.1 | 0.00 | 0.00 | 0.00 | 42 | 1019.3 |
| 20260509031426 | 13 | 263 | 0.0 | 16.1 | 0.00 | 0.00 | 0.00 | 41 | 1019.3 |
| 20260509030426 | 13 | 264 | 0.0 | 16.1 | 0.00 | 0.00 | 0.00 | 40 | 1019.0 |
| 20260509025426 | 13 | 262 | 0.0 | 16.1 | 0.00 | 0.00 | 0.00 | 39 | 1019.0 |
| 20260509024426 | 13 | 257 | 1.6 | 16.1 | 0.00 | 0.00 | 0.00 | 38 | 1018.6 |
| 20260509023426 | 15 | 258 | 3.2 | 16.1 | 0.00 | 0.00 | 0.00 | 37 | 1018.6 |
| 20260509022426 | 15 | 261 | 1.6 | 16.1 | 0.00 | 0.00 | 0.00 | 36 | 1018.3 |
| 20260509021356 | 16 | 245 | 1.6 | 16.1 | 0.00 | 0.00 | 0.00 | 33 | 1018.3 |
| 20260509020356 | 17 | 259 | 1.6 | 16.1 | 0.00 | 0.00 | 0.00 | 31 | 1017.9 |
| 20260509015356 | 17 | 263 | 1.6 | 16.1 | 0.00 | 0.00 | 0.00 | 28 | 1017.9 |
| 20260509014326 | 18 | 274 | 1.6 | 16.1 | 0.00 | 0.00 | 0.00 | 28 | 1017.9 |
| 20260509013326 | 18 | 290 | 0.0 | 16.1 | 0.00 | 0.00 | 0.00 | 29 | 1017.9 |
| 20260509012326 | 18 | 254 | 3.2 | 16.1 | 0.00 | 0.00 | 0.00 | 28 | 1017.6 |
| 20260509011326 | 19 | 283 | 1.6 | 16.1 | 0.00 | 0.00 | 0.00 | 26 | 1017.6 |
| 20260509010326 | 20 | 334 | 0.0 | 16.1 | 0.00 | 0.00 | 0.00 | 26 | 1017.6 |
| 20260509005256 | 20 | 52 | 0.0 | 16.1 | 0.00 | 0.00 | 0.00 | 26 | 1017.6 |
| 20260509004256 | 21 | 76 | 0.0 | 16.1 | 0.00 | 0.00 | 0.00 | 25 | 1017.9 |
| 20260509003256 | 21 | 117 | 0.0 | 16.1 | 0.00 | 0.00 | 0.00 | 24 | 1017.9 |
| 20260509002256 | 22 | 109 | 0.0 | 16.1 | 0.00 | 0.00 | 0.00 | 24 | 1017.9 |
| 20260509001256 | 22 | 109 | 0.0 | 16.1 | 0.00 | 0.00 | 0.00 | 24 | 1017.9 |
| 20260509000256 | 22 | 64 | 3.2 | 16.1 | 0.00 | 0.00 | 0.00 | 23 | 1017.9 |
| 20260508235255 | 23 | 131 | 3.2 | 16.1 | 0.00 | 0.00 | 0.00 | 21 | 1017.9 |
| 20260508234255 | 22 | 18 | 4.8 | 16.1 | 0.00 | 0.00 | 0.00 | 22 | 1017.6 |
| 20260508233255 | 22 | 19 | 3.2 | 16.1 | 0.00 | 0.00 | 0.00 | 23 | 1017.6 |
| 20260508232255 | 22 | 35 | 3.2 | 16.1 | 0.00 | 0.00 | 0.00 | 22 | 1017.9 |
| 20260508231255 | 22 | 0 | 4.8 | 16.1 | 0.00 | 0.00 | 0.00 | 21 | 1017.9 |
| 20260508230254 | 22 | 32 | 3.2 | 16.1 | 0.00 | 0.00 | 0.00 | 20 | 1017.9 |
| 20260508225254 | 23 | 330 | 1.6 | 16.1 | 0.00 | 0.00 | 0.00 | 18 | 1018.0 |
| 20260508224253 | 23 | 334 | 1.6 | 16.1 | 0.00 | 0.00 | 0.00 | 18 | 1018.3 |
| 20260508223253 | 23 | 230 | 1.6 | 16.1 | 0.00 | 0.00 | 0.00 | 18 | 1018.3 |
| 20260508222253 | 24 | 162 | 0.0 | 16.1 | 0.00 | 0.00 | 0.00 | 20 | 1018.3 |
| 20260508221253 | 24 | 203 | 3.2 | 16.1 | 0.00 | 0.00 | 0.00 | 18 | 1018.3 |
| 20260508220253 | 25 | 293 | 4.8 | 16.1 | 0.00 | 0.00 | 0.00 | 18 | 1018.6 |
| 20260508215253 | 25 | 290 | 0.0 | 16.1 | 0.00 | 0.00 | 0.00 | 19 | 1018.6 |
| 20260508214253 | 23 | 165 | 1.6 | 16.1 | 0.00 | 0.00 | 0.00 | 20 | 1018.6 |
| 20260508213253 | 23 | 168 | 1.6 | 16.1 | 0.00 | 0.00 | 0.00 | 21 | 1018.7 |
| 20260508212253 | 24 | 278 | 3.2 | 16.1 | 0.00 | 0.00 | 0.00 | 18 | 1019.0 |
| 20260508211253 | 23 | 160 | 1.6 | 16.1 | 0.00 | 0.00 | 0.00 | 20 | 1019.0 |
| 20260508210253 | 23 | 356 | 0.0 | 16.1 | 0.00 | 0.00 | 0.00 | 21 | 1019.3 |
| 20260508205253 | 23 | 152 | 3.2 | 16.1 | 0.00 | 0.00 | 0.00 | 20 | 1019.3 |
| 20260508204253 | 23 | 125 | 3.2 | 16.1 | 0.00 | 0.00 | 0.00 | 22 | 1019.3 |